sensor_id;sensor_type;location;lat;lon;timestamp;temperature;humidity
21582;DHT22;10952;50.836;4.348;2023-08-06T00:00:07;16.50;99.90
21582;DHT22;10952;50.836;4.348;2023-08-06T00:02:34;16.60;99.90
21582;DHT22;10952;50.836;4.348;2023-08-06T00:04:59;16.70;99.90
21582;DHT22;10952;50.836;4.348;2023-08-06T00:07:25;16.60;99.90
21582;DHT22;10952;50.836;4.348;2023-08-06T00:09:51;16.60;99.90
21582;DHT22;10952;50.836;4.348;2023-08-06T00:12:17;16.60;99.90
21582;DHT22;10952;50.836;4.348;2023-08-06T00:14:42;16.70;99.90
21582;DHT22;10952;50.836;4.348;2023-08-06T00:17:08;16.60;99.90
21582;DHT22;10952;50.836;4.348;2023-08-06T00:19:34;16.60;99.90
21582;DHT22;10952;50.836;4.348;2023-08-06T00:21:59;16.50;99.90
21582;DHT22;10952;50.836;4.348;2023-08-06T00:24:27;16.60;99.90
21582;DHT22;10952;50.836;4.348;2023-08-06T00:26:53;16.60;99.90
21582;DHT22;10952;50.836;4.348;2023-08-06T00:29:19;16.60;99.90
21582;DHT22;10952;50.836;4.348;2023-08-06T00:31:44;16.70;99.90
21582;DHT22;10952;50.836;4.348;2023-08-06T00:34:10;16.80;99.90
21582;DHT22;10952;50.836;4.348;2023-08-06T00:36:36;16.80;99.90
21582;DHT22;10952;50.836;4.348;2023-08-06T00:39:02;16.80;99.90
21582;DHT22;10952;50.836;4.348;2023-08-06T00:41:28;16.80;99.90
21582;DHT22;10952;50.836;4.348;2023-08-06T00:43:53;16.70;99.90
21582;DHT22;10952;50.836;4.348;2023-08-06T00:46:19;16.70;99.90
21582;DHT22;10952;50.836;4.348;2023-08-06T00:48:45;16.70;99.90
21582;DHT22;10952;50.836;4.348;2023-08-06T00:51:11;16.80;99.90
21582;DHT22;10952;50.836;4.348;2023-08-06T00:53:38;16.70;99.90
21582;DHT22;10952;50.836;4.348;2023-08-06T00:56:05;16.60;99.90
21582;DHT22;10952;50.836;4.348;2023-08-06T00:58:31;16.70;99.90
21582;DHT22;10952;50.836;4.348;2023-08-06T01:00:57;16.70;99.90
21582;DHT22;10952;50.836;4.348;2023-08-06T01:03:23;16.70;99.90
21582;DHT22;10952;50.836;4.348;2023-08-06T01:05:49;16.70;99.90
21582;DHT22;10952;50.836;4.348;2023-08-06T01:13:48;16.60;99.90
21582;DHT22;10952;50.836;4.348;2023-08-06T01:16:18;16.50;99.90
21582;DHT22;10952;50.836;4.348;2023-08-06T01:18:46;16.60;99.90
21582;DHT22;10952;50.836;4.348;2023-08-06T01:21:19;16.50;99.90
21582;DHT22;10952;50.836;4.348;2023-08-06T01:23:45;16.50;99.90
21582;DHT22;10952;50.836;4.348;2023-08-06T01:26:25;16.50;99.90
21582;DHT22;10952;50.836;4.348;2023-08-06T01:31:27;16.50;99.90
21582;DHT22;10952;50.836;4.348;2023-08-06T01:33:56;16.60;99.90
21582;DHT22;10952;50.836;4.348;2023-08-06T01:36:23;16.70;99.90
21582;DHT22;10952;50.836;4.348;2023-08-06T01:38:53;16.70;99.90
21582;DHT22;10952;50.836;4.348;2023-08-06T01:41:19;16.80;99.90
21582;DHT22;10952;50.836;4.348;2023-08-06T01:43:45;16.60;99.90
21582;DHT22;10952;50.836;4.348;2023-08-06T01:46:11;16.50;99.90
21582;DHT22;10952;50.836;4.348;2023-08-06T01:48:37;16.60;99.90
21582;DHT22;10952;50.836;4.348;2023-08-06T01:51:05;16.70;99.90
21582;DHT22;10952;50.836;4.348;2023-08-06T01:53:32;16.90;99.90
21582;DHT22;10952;50.836;4.348;2023-08-06T01:55:57;16.90;99.90
21582;DHT22;10952;50.836;4.348;2023-08-06T01:58:23;16.80;99.90
21582;DHT22;10952;50.836;4.348;2023-08-06T02:00:49;16.80;99.90
21582;DHT22;10952;50.836;4.348;2023-08-06T02:03:15;16.80;99.90
21582;DHT22;10952;50.836;4.348;2023-08-06T02:05:41;16.80;99.90
21582;DHT22;10952;50.836;4.348;2023-08-06T02:08:07;16.60;99.90
21582;DHT22;10952;50.836;4.348;2023-08-06T02:10:33;16.30;99.90
21582;DHT22;10952;50.836;4.348;2023-08-06T02:12:59;16.20;99.90
21582;DHT22;10952;50.836;4.348;2023-08-06T02:15:24;16.20;99.90
21582;DHT22;10952;50.836;4.348;2023-08-06T02:17:50;16.20;99.90
21582;DHT22;10952;50.836;4.348;2023-08-06T02:20:16;16.10;99.90
21582;DHT22;10952;50.836;4.348;2023-08-06T02:22:42;16.00;99.90
21582;DHT22;10952;50.836;4.348;2023-08-06T02:25:08;15.90;99.90
21582;DHT22;10952;50.836;4.348;2023-08-06T02:27:33;15.90;99.90
21582;DHT22;10952;50.836;4.348;2023-08-06T02:29:59;15.90;99.90
21582;DHT22;10952;50.836;4.348;2023-08-06T02:32:25;15.90;99.90
21582;DHT22;10952;50.836;4.348;2023-08-06T02:34:50;15.90;99.90
21582;DHT22;10952;50.836;4.348;2023-08-06T02:37:16;15.90;99.90
21582;DHT22;10952;50.836;4.348;2023-08-06T02:39:42;15.80;99.90
21582;DHT22;10952;50.836;4.348;2023-08-06T02:42:08;15.70;99.90
21582;DHT22;10952;50.836;4.348;2023-08-06T02:44:35;15.70;99.90
21582;DHT22;10952;50.836;4.348;2023-08-06T02:47:01;15.80;99.90
21582;DHT22;10952;50.836;4.348;2023-08-06T02:49:27;15.80;99.90
21582;DHT22;10952;50.836;4.348;2023-08-06T02:51:52;15.90;99.90
21582;DHT22;10952;50.836;4.348;2023-08-06T02:54:19;16.00;99.90
21582;DHT22;10952;50.836;4.348;2023-08-06T02:56:45;16.10;99.90
21582;DHT22;10952;50.836;4.348;2023-08-06T02:59:12;16.10;99.90
21582;DHT22;10952;50.836;4.348;2023-08-06T03:01:39;16.00;99.90
21582;DHT22;10952;50.836;4.348;2023-08-06T03:04:05;15.90;99.90
21582;DHT22;10952;50.836;4.348;2023-08-06T03:06:30;16.10;99.90
21582;DHT22;10952;50.836;4.348;2023-08-06T03:08:56;16.20;99.90
21582;DHT22;10952;50.836;4.348;2023-08-06T03:11:22;16.00;99.90
21582;DHT22;10952;50.836;4.348;2023-08-06T03:13:48;15.90;99.90
21582;DHT22;10952;50.836;4.348;2023-08-06T03:16:14;16.00;99.90
21582;DHT22;10952;50.836;4.348;2023-08-06T03:18:40;15.80;99.90
21582;DHT22;10952;50.836;4.348;2023-08-06T03:21:06;15.90;99.90
21582;DHT22;10952;50.836;4.348;2023-08-06T03:23:31;15.90;99.90
21582;DHT22;10952;50.836;4.348;2023-08-06T03:26:04;15.90;99.90
21582;DHT22;10952;50.836;4.348;2023-08-06T03:28:30;15.90;99.90
21582;DHT22;10952;50.836;4.348;2023-08-06T03:31:03;15.90;99.90
21582;DHT22;10952;50.836;4.348;2023-08-06T03:33:29;15.90;99.90
21582;DHT22;10952;50.836;4.348;2023-08-06T03:35:55;15.90;99.90
21582;DHT22;10952;50.836;4.348;2023-08-06T03:38:21;15.80;99.90
21582;DHT22;10952;50.836;4.348;2023-08-06T03:40:48;15.70;99.90
21582;DHT22;10952;50.836;4.348;2023-08-06T03:43:13;15.70;99.90
21582;DHT22;10952;50.836;4.348;2023-08-06T03:45:40;15.70;99.90
21582;DHT22;10952;50.836;4.348;2023-08-06T03:48:07;15.60;99.90
21582;DHT22;10952;50.836;4.348;2023-08-06T03:50:32;15.70;99.90
21582;DHT22;10952;50.836;4.348;2023-08-06T03:52:58;15.80;99.90
21582;DHT22;10952;50.836;4.348;2023-08-06T03:55:24;15.80;99.90
21582;DHT22;10952;50.836;4.348;2023-08-06T03:57:49;15.50;99.90
21582;DHT22;10952;50.836;4.348;2023-08-06T04:00:15;15.40;99.90
21582;DHT22;10952;50.836;4.348;2023-08-06T04:02:41;15.30;99.90
21582;DHT22;10952;50.836;4.348;2023-08-06T04:05:07;15.20;99.90
21582;DHT22;10952;50.836;4.348;2023-08-06T04:07:33;15.10;99.90
21582;DHT22;10952;50.836;4.348;2023-08-06T04:10:01;15.00;99.90
21582;DHT22;10952;50.836;4.348;2023-08-06T04:12:27;14.90;99.90
21582;DHT22;10952;50.836;4.348;2023-08-06T04:14:53;14.80;99.90
21582;DHT22;10952;50.836;4.348;2023-08-06T04:17:21;14.80;99.90
21582;DHT22;10952;50.836;4.348;2023-08-06T04:19:54;14.80;99.90
21582;DHT22;10952;50.836;4.348;2023-08-06T04:22:21;14.80;99.90
21582;DHT22;10952;50.836;4.348;2023-08-06T04:24:47;14.80;99.90
21582;DHT22;10952;50.836;4.348;2023-08-06T04:27:14;14.80;99.90
21582;DHT22;10952;50.836;4.348;2023-08-06T04:29:40;14.70;99.90
21582;DHT22;10952;50.836;4.348;2023-08-06T04:32:07;14.80;99.90
21582;DHT22;10952;50.836;4.348;2023-08-06T04:34:34;14.80;99.90
21582;DHT22;10952;50.836;4.348;2023-08-06T04:37:00;14.90;99.90
21582;DHT22;10952;50.836;4.348;2023-08-06T04:39:26;14.80;99.90
21582;DHT22;10952;50.836;4.348;2023-08-06T04:41:52;14.70;99.90
21582;DHT22;10952;50.836;4.348;2023-08-06T04:44:17;14.60;99.90
21582;DHT22;10952;50.836;4.348;2023-08-06T04:46:43;14.60;99.90
21582;DHT22;10952;50.836;4.348;2023-08-06T04:49:09;14.60;99.90
21582;DHT22;10952;50.836;4.348;2023-08-06T04:51:35;14.50;99.90
21582;DHT22;10952;50.836;4.348;2023-08-06T04:54:01;14.60;99.90
21582;DHT22;10952;50.836;4.348;2023-08-06T04:56:26;14.50;99.90
21582;DHT22;10952;50.836;4.348;2023-08-06T04:58:52;14.40;99.90
21582;DHT22;10952;50.836;4.348;2023-08-06T05:01:18;14.50;99.90
21582;DHT22;10952;50.836;4.348;2023-08-06T05:03:44;14.50;99.90
21582;DHT22;10952;50.836;4.348;2023-08-06T05:06:10;14.60;99.90
21582;DHT22;10952;50.836;4.348;2023-08-06T05:08:36;14.60;99.90
21582;DHT22;10952;50.836;4.348;2023-08-06T05:11:02;14.60;99.90
21582;DHT22;10952;50.836;4.348;2023-08-06T05:13:27;14.60;99.90
21582;DHT22;10952;50.836;4.348;2023-08-06T05:15:54;14.60;99.90
21582;DHT22;10952;50.836;4.348;2023-08-06T05:18:20;14.60;99.90
21582;DHT22;10952;50.836;4.348;2023-08-06T05:20:46;14.60;99.90
21582;DHT22;10952;50.836;4.348;2023-08-06T05:23:11;14.70;99.90
21582;DHT22;10952;50.836;4.348;2023-08-06T05:25:38;14.60;99.90
21582;DHT22;10952;50.836;4.348;2023-08-06T05:28:04;14.70;99.90
21582;DHT22;10952;50.836;4.348;2023-08-06T05:30:30;14.70;99.90
21582;DHT22;10952;50.836;4.348;2023-08-06T05:32:55;14.70;99.90
21582;DHT22;10952;50.836;4.348;2023-08-06T05:35:22;14.70;99.90
21582;DHT22;10952;50.836;4.348;2023-08-06T05:37:48;14.70;99.90
21582;DHT22;10952;50.836;4.348;2023-08-06T05:40:14;14.80;99.90
21582;DHT22;10952;50.836;4.348;2023-08-06T05:42:40;14.80;99.90
21582;DHT22;10952;50.836;4.348;2023-08-06T05:45:06;14.70;99.90
21582;DHT22;10952;50.836;4.348;2023-08-06T05:47:32;14.60;99.90
21582;DHT22;10952;50.836;4.348;2023-08-06T05:49:58;14.60;99.90
21582;DHT22;10952;50.836;4.348;2023-08-06T05:52:24;14.60;99.90
21582;DHT22;10952;50.836;4.348;2023-08-06T05:54:49;14.60;99.90
21582;DHT22;10952;50.836;4.348;2023-08-06T05:57:15;14.60;99.90
21582;DHT22;10952;50.836;4.348;2023-08-06T05:59:41;14.60;99.90
21582;DHT22;10952;50.836;4.348;2023-08-06T06:02:07;14.60;99.90
21582;DHT22;10952;50.836;4.348;2023-08-06T06:04:33;14.70;99.90
21582;DHT22;10952;50.836;4.348;2023-08-06T06:06:59;14.80;99.90
21582;DHT22;10952;50.836;4.348;2023-08-06T06:09:25;14.80;99.90
21582;DHT22;10952;50.836;4.348;2023-08-06T06:11:50;14.80;99.90
21582;DHT22;10952;50.836;4.348;2023-08-06T06:14:17;14.80;99.90
21582;DHT22;10952;50.836;4.348;2023-08-06T06:16:43;14.80;99.90
21582;DHT22;10952;50.836;4.348;2023-08-06T06:19:09;14.80;99.90
21582;DHT22;10952;50.836;4.348;2023-08-06T06:21:35;14.80;99.90
21582;DHT22;10952;50.836;4.348;2023-08-06T06:24:01;14.90;99.90
21582;DHT22;10952;50.836;4.348;2023-08-06T06:26:28;14.80;99.90
21582;DHT22;10952;50.836;4.348;2023-08-06T06:28:53;14.90;99.90
21582;DHT22;10952;50.836;4.348;2023-08-06T06:31:19;15.00;99.90
21582;DHT22;10952;50.836;4.348;2023-08-06T06:33:45;15.10;99.90
21582;DHT22;10952;50.836;4.348;2023-08-06T06:36:11;15.20;99.90
21582;DHT22;10952;50.836;4.348;2023-08-06T06:38:37;15.20;99.90
21582;DHT22;10952;50.836;4.348;2023-08-06T06:41:02;15.30;99.90
21582;DHT22;10952;50.836;4.348;2023-08-06T06:43:28;15.30;99.90
21582;DHT22;10952;50.836;4.348;2023-08-06T06:45:58;15.30;99.90
21582;DHT22;10952;50.836;4.348;2023-08-06T06:48:26;15.20;99.90
21582;DHT22;10952;50.836;4.348;2023-08-06T06:50:52;15.20;99.90
21582;DHT22;10952;50.836;4.348;2023-08-06T06:53:18;15.20;99.90
21582;DHT22;10952;50.836;4.348;2023-08-06T06:55:44;15.30;99.90
21582;DHT22;10952;50.836;4.348;2023-08-06T06:58:10;15.20;99.90
21582;DHT22;10952;50.836;4.348;2023-08-06T07:00:36;15.30;99.90
21582;DHT22;10952;50.836;4.348;2023-08-06T07:03:02;15.20;99.90
21582;DHT22;10952;50.836;4.348;2023-08-06T07:05:28;15.00;99.90
21582;DHT22;10952;50.836;4.348;2023-08-06T07:07:54;14.90;99.90
21582;DHT22;10952;50.836;4.348;2023-08-06T07:10:20;14.70;99.90
21582;DHT22;10952;50.836;4.348;2023-08-06T07:12:46;14.70;99.90
21582;DHT22;10952;50.836;4.348;2023-08-06T07:15:11;14.70;99.90
21582;DHT22;10952;50.836;4.348;2023-08-06T07:17:37;14.70;99.90
21582;DHT22;10952;50.836;4.348;2023-08-06T07:20:03;14.70;99.90
21582;DHT22;10952;50.836;4.348;2023-08-06T07:22:29;14.70;99.90
21582;DHT22;10952;50.836;4.348;2023-08-06T07:24:55;14.80;99.90
21582;DHT22;10952;50.836;4.348;2023-08-06T07:27:21;14.90;99.90
21582;DHT22;10952;50.836;4.348;2023-08-06T07:29:46;15.00;99.90
21582;DHT22;10952;50.836;4.348;2023-08-06T07:32:13;15.10;99.90
21582;DHT22;10952;50.836;4.348;2023-08-06T07:34:39;15.20;99.90
21582;DHT22;10952;50.836;4.348;2023-08-06T07:37:06;15.30;99.90
21582;DHT22;10952;50.836;4.348;2023-08-06T07:39:32;15.30;99.90
21582;DHT22;10952;50.836;4.348;2023-08-06T07:42:00;15.40;99.90
21582;DHT22;10952;50.836;4.348;2023-08-06T07:44:28;15.50;99.90
21582;DHT22;10952;50.836;4.348;2023-08-06T07:46:53;15.50;99.90
21582;DHT22;10952;50.836;4.348;2023-08-06T07:49:19;15.50;99.90
21582;DHT22;10952;50.836;4.348;2023-08-06T07:51:45;15.60;99.90
21582;DHT22;10952;50.836;4.348;2023-08-06T07:54:10;15.80;99.90
21582;DHT22;10952;50.836;4.348;2023-08-06T07:56:36;15.70;99.90
21582;DHT22;10952;50.836;4.348;2023-08-06T07:59:02;15.60;99.90
21582;DHT22;10952;50.836;4.348;2023-08-06T08:01:28;15.80;99.90
21582;DHT22;10952;50.836;4.348;2023-08-06T08:03:53;16.00;99.90
21582;DHT22;10952;50.836;4.348;2023-08-06T08:06:19;16.10;99.90
21582;DHT22;10952;50.836;4.348;2023-08-06T08:08:45;16.40;99.90
21582;DHT22;10952;50.836;4.348;2023-08-06T08:11:11;16.50;99.90
21582;DHT22;10952;50.836;4.348;2023-08-06T08:13:36;16.60;99.90
21582;DHT22;10952;50.836;4.348;2023-08-06T08:16:02;16.40;99.90
21582;DHT22;10952;50.836;4.348;2023-08-06T08:18:28;16.30;99.90
21582;DHT22;10952;50.836;4.348;2023-08-06T08:20:55;16.40;99.90
21582;DHT22;10952;50.836;4.348;2023-08-06T08:23:21;16.20;99.90
21582;DHT22;10952;50.836;4.348;2023-08-06T08:25:46;16.00;99.90
21582;DHT22;10952;50.836;4.348;2023-08-06T08:28:12;15.80;99.90
21582;DHT22;10952;50.836;4.348;2023-08-06T08:30:38;15.70;99.90
21582;DHT22;10952;50.836;4.348;2023-08-06T08:33:05;15.50;99.90
21582;DHT22;10952;50.836;4.348;2023-08-06T08:35:31;15.40;99.90
21582;DHT22;10952;50.836;4.348;2023-08-06T08:37:57;15.40;99.90
21582;DHT22;10952;50.836;4.348;2023-08-06T08:40:26;15.40;99.90
21582;DHT22;10952;50.836;4.348;2023-08-06T08:42:55;15.50;99.90
21582;DHT22;10952;50.836;4.348;2023-08-06T08:45:22;15.40;99.90
21582;DHT22;10952;50.836;4.348;2023-08-06T08:47:51;15.60;99.90
21582;DHT22;10952;50.836;4.348;2023-08-06T08:50:17;15.90;99.90
21582;DHT22;10952;50.836;4.348;2023-08-06T08:52:45;16.20;99.90
21582;DHT22;10952;50.836;4.348;2023-08-06T08:55:12;16.10;99.90
21582;DHT22;10952;50.836;4.348;2023-08-06T08:57:39;16.00;99.90
21582;DHT22;10952;50.836;4.348;2023-08-06T09:00:05;15.90;99.90
21582;DHT22;10952;50.836;4.348;2023-08-06T09:02:33;15.90;99.90
21582;DHT22;10952;50.836;4.348;2023-08-06T09:05:00;15.90;99.90
21582;DHT22;10952;50.836;4.348;2023-08-06T09:07:32;16.10;99.90
21582;DHT22;10952;50.836;4.348;2023-08-06T09:10:02;16.10;99.90
21582;DHT22;10952;50.836;4.348;2023-08-06T09:12:30;16.20;99.90
21582;DHT22;10952;50.836;4.348;2023-08-06T09:14:55;16.00;99.90
21582;DHT22;10952;50.836;4.348;2023-08-06T09:17:21;15.80;99.90
21582;DHT22;10952;50.836;4.348;2023-08-06T09:19:47;15.60;99.90
21582;DHT22;10952;50.836;4.348;2023-08-06T09:22:14;15.80;99.90
21582;DHT22;10952;50.836;4.348;2023-08-06T09:24:41;15.80;99.90
21582;DHT22;10952;50.836;4.348;2023-08-06T09:27:11;15.70;99.90
21582;DHT22;10952;50.836;4.348;2023-08-06T09:29:41;15.80;99.90
21582;DHT22;10952;50.836;4.348;2023-08-06T09:32:07;15.50;99.90
21582;DHT22;10952;50.836;4.348;2023-08-06T09:34:33;15.40;99.90
21582;DHT22;10952;50.836;4.348;2023-08-06T09:36:58;15.30;99.90
21582;DHT22;10952;50.836;4.348;2023-08-06T09:39:29;15.10;99.90
21582;DHT22;10952;50.836;4.348;2023-08-06T09:41:59;14.90;99.90
21582;DHT22;10952;50.836;4.348;2023-08-06T09:44:27;14.80;99.90
21582;DHT22;10952;50.836;4.348;2023-08-06T09:46:55;14.90;99.90
21582;DHT22;10952;50.836;4.348;2023-08-06T09:49:25;14.90;99.90
21582;DHT22;10952;50.836;4.348;2023-08-06T09:51:52;14.90;99.90
21582;DHT22;10952;50.836;4.348;2023-08-06T09:54:23;14.80;99.90
21582;DHT22;10952;50.836;4.348;2023-08-06T09:56:49;14.90;99.90
21582;DHT22;10952;50.836;4.348;2023-08-06T09:59:15;15.00;99.90
21582;DHT22;10952;50.836;4.348;2023-08-06T10:01:42;15.10;99.90
21582;DHT22;10952;50.836;4.348;2023-08-06T10:04:09;15.20;99.90
21582;DHT22;10952;50.836;4.348;2023-08-06T10:06:37;15.30;99.90
21582;DHT22;10952;50.836;4.348;2023-08-06T10:09:04;15.40;99.90
21582;DHT22;10952;50.836;4.348;2023-08-06T10:11:30;15.40;99.90
21582;DHT22;10952;50.836;4.348;2023-08-06T10:14:19;15.50;99.90
21582;DHT22;10952;50.836;4.348;2023-08-06T10:16:47;15.60;99.90
21582;DHT22;10952;50.836;4.348;2023-08-06T10:19:13;15.60;99.90
21582;DHT22;10952;50.836;4.348;2023-08-06T10:21:41;15.70;99.90
21582;DHT22;10952;50.836;4.348;2023-08-06T10:24:13;15.80;99.90
21582;DHT22;10952;50.836;4.348;2023-08-06T10:26:40;15.70;99.90
21582;DHT22;10952;50.836;4.348;2023-08-06T10:29:58;15.60;99.90
21582;DHT22;10952;50.836;4.348;2023-08-06T10:32:16;15.40;99.90
21582;DHT22;10952;50.836;4.348;2023-08-06T10:34:57;15.00;99.90
21582;DHT22;10952;50.836;4.348;2023-08-06T10:37:44;14.90;99.90
21582;DHT22;10952;50.836;4.348;2023-08-06T10:40:09;14.70;99.90
21582;DHT22;10952;50.836;4.348;2023-08-06T10:42:35;14.60;99.90
21582;DHT22;10952;50.836;4.348;2023-08-06T10:45:15;14.50;99.90
21582;DHT22;10952;50.836;4.348;2023-08-06T10:47:42;14.40;99.90
21582;DHT22;10952;50.836;4.348;2023-08-06T10:50:12;14.40;99.90
21582;DHT22;10952;50.836;4.348;2023-08-06T10:52:38;14.50;99.90
21582;DHT22;10952;50.836;4.348;2023-08-06T10:55:04;14.60;99.90
21582;DHT22;10952;50.836;4.348;2023-08-06T10:57:30;14.70;99.90
21582;DHT22;10952;50.836;4.348;2023-08-06T10:59:55;14.80;99.90
21582;DHT22;10952;50.836;4.348;2023-08-06T11:02:21;14.80;99.90
21582;DHT22;10952;50.836;4.348;2023-08-06T11:04:48;15.00;99.90
21582;DHT22;10952;50.836;4.348;2023-08-06T11:07:14;15.20;99.90
21582;DHT22;10952;50.836;4.348;2023-08-06T11:09:39;15.30;99.90
21582;DHT22;10952;50.836;4.348;2023-08-06T11:12:11;15.40;99.90
21582;DHT22;10952;50.836;4.348;2023-08-06T11:14:37;15.60;99.90
21582;DHT22;10952;50.836;4.348;2023-08-06T11:17:05;15.80;99.90
21582;DHT22;10952;50.836;4.348;2023-08-06T11:19:31;15.90;99.90
21582;DHT22;10952;50.836;4.348;2023-08-06T11:21:57;15.90;99.90
21582;DHT22;10952;50.836;4.348;2023-08-06T11:24:24;15.90;99.90
21582;DHT22;10952;50.836;4.348;2023-08-06T11:26:50;15.90;99.90
21582;DHT22;10952;50.836;4.348;2023-08-06T11:29:16;16.10;99.90
21582;DHT22;10952;50.836;4.348;2023-08-06T11:31:42;16.10;99.90
21582;DHT22;10952;50.836;4.348;2023-08-06T11:34:07;16.00;99.90
21582;DHT22;10952;50.836;4.348;2023-08-06T11:36:40;15.90;99.90
21582;DHT22;10952;50.836;4.348;2023-08-06T11:39:06;15.70;99.90
21582;DHT22;10952;50.836;4.348;2023-08-06T11:41:32;15.30;99.90
21582;DHT22;10952;50.836;4.348;2023-08-06T11:43:59;15.10;99.90
21582;DHT22;10952;50.836;4.348;2023-08-06T11:46:25;14.90;99.90
21582;DHT22;10952;50.836;4.348;2023-08-06T11:48:55;15.00;99.90
21582;DHT22;10952;50.836;4.348;2023-08-06T11:51:25;15.00;99.90
21582;DHT22;10952;50.836;4.348;2023-08-06T11:53:59;15.10;99.90
21582;DHT22;10952;50.836;4.348;2023-08-06T11:56:26;15.10;99.90
21582;DHT22;10952;50.836;4.348;2023-08-06T11:58:52;15.00;99.90
21582;DHT22;10952;50.836;4.348;2023-08-06T12:01:18;15.00;99.90
21582;DHT22;10952;50.836;4.348;2023-08-06T12:03:44;15.00;99.90
21582;DHT22;10952;50.836;4.348;2023-08-06T12:06:10;14.90;99.90
21582;DHT22;10952;50.836;4.348;2023-08-06T12:08:36;14.90;99.90
21582;DHT22;10952;50.836;4.348;2023-08-06T12:11:03;14.90;99.90
21582;DHT22;10952;50.836;4.348;2023-08-06T12:13:29;15.00;99.90
21582;DHT22;10952;50.836;4.348;2023-08-06T12:15:55;15.10;99.90
21582;DHT22;10952;50.836;4.348;2023-08-06T12:18:22;15.30;99.90
21582;DHT22;10952;50.836;4.348;2023-08-06T12:20:48;15.50;99.90
21582;DHT22;10952;50.836;4.348;2023-08-06T12:23:14;15.70;99.90
21582;DHT22;10952;50.836;4.348;2023-08-06T12:25:41;16.00;99.90
21582;DHT22;10952;50.836;4.348;2023-08-06T12:28:07;16.20;99.90
21582;DHT22;10952;50.836;4.348;2023-08-06T12:30:34;16.20;99.90
21582;DHT22;10952;50.836;4.348;2023-08-06T12:33:00;16.30;99.90
21582;DHT22;10952;50.836;4.348;2023-08-06T12:35:26;16.30;99.90
21582;DHT22;10952;50.836;4.348;2023-08-06T12:37:52;16.40;99.90
21582;DHT22;10952;50.836;4.348;2023-08-06T12:40:20;16.40;99.90
21582;DHT22;10952;50.836;4.348;2023-08-06T12:42:46;16.30;99.90
21582;DHT22;10952;50.836;4.348;2023-08-06T12:45:11;16.20;99.90
21582;DHT22;10952;50.836;4.348;2023-08-06T12:47:37;15.90;99.90
21582;DHT22;10952;50.836;4.348;2023-08-06T12:50:03;15.70;99.90
21582;DHT22;10952;50.836;4.348;2023-08-06T12:52:29;15.50;99.90
21582;DHT22;10952;50.836;4.348;2023-08-06T12:54:55;15.50;99.90
21582;DHT22;10952;50.836;4.348;2023-08-06T12:57:21;15.60;99.90
21582;DHT22;10952;50.836;4.348;2023-08-06T12:59:46;15.60;99.90
21582;DHT22;10952;50.836;4.348;2023-08-06T13:02:13;15.80;99.90
21582;DHT22;10952;50.836;4.348;2023-08-06T13:04:39;15.90;99.90
21582;DHT22;10952;50.836;4.348;2023-08-06T13:07:05;15.90;99.90
21582;DHT22;10952;50.836;4.348;2023-08-06T13:09:32;15.90;99.90
21582;DHT22;10952;50.836;4.348;2023-08-06T13:11:58;16.00;99.90
21582;DHT22;10952;50.836;4.348;2023-08-06T13:14:25;16.10;99.90
21582;DHT22;10952;50.836;4.348;2023-08-06T13:16:51;16.00;99.90
21582;DHT22;10952;50.836;4.348;2023-08-06T13:19:16;15.90;99.90
21582;DHT22;10952;50.836;4.348;2023-08-06T13:24:15;15.90;99.90
21582;DHT22;10952;50.836;4.348;2023-08-06T13:26:41;16.00;99.90
21582;DHT22;10952;50.836;4.348;2023-08-06T13:29:07;15.80;99.90
21582;DHT22;10952;50.836;4.348;2023-08-06T13:31:33;15.70;99.90
21582;DHT22;10952;50.836;4.348;2023-08-06T13:33:58;15.70;99.90
21582;DHT22;10952;50.836;4.348;2023-08-06T13:36:27;15.80;99.90
21582;DHT22;10952;50.836;4.348;2023-08-06T13:38:53;15.70;99.90
21582;DHT22;10952;50.836;4.348;2023-08-06T13:41:19;15.60;99.90
21582;DHT22;10952;50.836;4.348;2023-08-06T13:43:45;15.50;99.90
21582;DHT22;10952;50.836;4.348;2023-08-06T13:46:11;15.30;99.90
21582;DHT22;10952;50.836;4.348;2023-08-06T13:48:45;15.10;99.90
21582;DHT22;10952;50.836;4.348;2023-08-06T13:51:12;15.20;99.90
21582;DHT22;10952;50.836;4.348;2023-08-06T13:53:39;15.20;99.90
21582;DHT22;10952;50.836;4.348;2023-08-06T13:56:09;15.10;99.90
21582;DHT22;10952;50.836;4.348;2023-08-06T13:58:35;15.00;99.90
21582;DHT22;10952;50.836;4.348;2023-08-06T14:01:01;14.90;99.90
21582;DHT22;10952;50.836;4.348;2023-08-06T14:03:27;14.70;99.90
21582;DHT22;10952;50.836;4.348;2023-08-06T14:05:53;14.70;99.90
21582;DHT22;10952;50.836;4.348;2023-08-06T14:08:25;14.80;99.90
21582;DHT22;10952;50.836;4.348;2023-08-06T14:10:51;14.90;99.90
21582;DHT22;10952;50.836;4.348;2023-08-06T14:13:17;14.90;99.90
21582;DHT22;10952;50.836;4.348;2023-08-06T14:15:44;15.00;99.90
21582;DHT22;10952;50.836;4.348;2023-08-06T14:18:13;15.20;99.90
21582;DHT22;10952;50.836;4.348;2023-08-06T14:20:39;15.40;99.90
21582;DHT22;10952;50.836;4.348;2023-08-06T14:23:05;15.30;99.90
21582;DHT22;10952;50.836;4.348;2023-08-06T14:25:31;15.30;99.90
21582;DHT22;10952;50.836;4.348;2023-08-06T14:27:57;15.20;99.90
21582;DHT22;10952;50.836;4.348;2023-08-06T14:30:23;15.30;99.90
21582;DHT22;10952;50.836;4.348;2023-08-06T14:32:49;15.20;99.90
21582;DHT22;10952;50.836;4.348;2023-08-06T14:35:15;15.10;99.90
21582;DHT22;10952;50.836;4.348;2023-08-06T14:37:40;15.10;99.90
21582;DHT22;10952;50.836;4.348;2023-08-06T14:40:07;15.00;99.90
21582;DHT22;10952;50.836;4.348;2023-08-06T14:42:33;15.10;99.90
21582;DHT22;10952;50.836;4.348;2023-08-06T14:44:59;15.10;99.90
21582;DHT22;10952;50.836;4.348;2023-08-06T14:47:24;15.00;99.90
21582;DHT22;10952;50.836;4.348;2023-08-06T14:49:50;15.10;99.90
21582;DHT22;10952;50.836;4.348;2023-08-06T14:52:16;15.10;99.90
21582;DHT22;10952;50.836;4.348;2023-08-06T14:54:42;15.20;99.90
21582;DHT22;10952;50.836;4.348;2023-08-06T14:57:09;15.20;99.90
21582;DHT22;10952;50.836;4.348;2023-08-06T14:59:35;15.40;99.90
21582;DHT22;10952;50.836;4.348;2023-08-06T15:02:01;15.40;99.90
21582;DHT22;10952;50.836;4.348;2023-08-06T15:04:27;15.30;99.90
21582;DHT22;10952;50.836;4.348;2023-08-06T15:06:53;15.50;99.90
21582;DHT22;10952;50.836;4.348;2023-08-06T15:09:19;15.80;99.90
21582;DHT22;10952;50.836;4.348;2023-08-06T15:11:47;16.00;99.90
21582;DHT22;10952;50.836;4.348;2023-08-06T15:14:13;16.20;99.90
21582;DHT22;10952;50.836;4.348;2023-08-06T15:16:40;16.50;99.90
21582;DHT22;10952;50.836;4.348;2023-08-06T15:19:05;16.60;99.90
21582;DHT22;10952;50.836;4.348;2023-08-06T15:21:31;16.70;99.90
21582;DHT22;10952;50.836;4.348;2023-08-06T15:23:57;16.80;99.90
21582;DHT22;10952;50.836;4.348;2023-08-06T15:26:22;16.70;99.90
21582;DHT22;10952;50.836;4.348;2023-08-06T15:28:48;16.60;99.90
21582;DHT22;10952;50.836;4.348;2023-08-06T15:31:14;16.60;99.90
21582;DHT22;10952;50.836;4.348;2023-08-06T15:33:40;16.60;99.90
21582;DHT22;10952;50.836;4.348;2023-08-06T15:36:05;16.40;99.90